Terminal Aerodrome Forecast
Issued by NWS

Home | Current Version | Previous Version | Text Only | Print | Product List | Glossary On
Versions: 1 2 3 4 5 6 7 8 9 10 11 12 13 14 15 16 17 18 19 20 21 22 23 24 25 26 27 28 29
000
FTUS41 KBGM 302300
TAFITH
TAF
KITH 302328Z 3100/3124 VRB04KT P6SM SCT035 BKN120
      TEMPO 3100/3101 32007KT -SHRA OVC035
     FM311200 21006KT P6SM SCT040 BKN070
      TEMPO 3112/3116 4SM -SHRA BR OVC040
     FM311600 26010KT P6SM BKN050=

USA.gov is the U.S. government's official web portal to all federal, state and local government web resources and services.